createdAt,value
2022-07-31T00:00:51.397Z,8.80
2022-07-31T00:03:18.111Z,8.80
2022-07-31T00:05:44.764Z,10.07
2022-07-31T00:08:11.346Z,9.07
2022-07-31T00:10:38.517Z,10.13
2022-07-31T00:13:05.209Z,9.68
2022-07-31T00:15:31.829Z,9.75
2022-07-31T00:17:58.416Z,10.38
2022-07-31T00:20:25.071Z,9.05
2022-07-31T00:22:51.749Z,10.18
2022-07-31T00:25:19.019Z,11.35
2022-07-31T00:27:46.533Z,10.80
2022-07-31T00:30:13.746Z,10.48
2022-07-31T00:32:41.753Z,8.90
2022-07-31T00:35:08.972Z,9.88
2022-07-31T00:37:37.646Z,8.35
2022-07-31T00:40:07.887Z,9.17
2022-07-31T00:42:34.787Z,9.02
2022-07-31T00:45:01.610Z,8.73
2022-07-31T00:47:28.365Z,8.82
2022-07-31T00:49:56.578Z,7.80
2022-07-31T00:52:23.662Z,7.43
2022-07-31T00:54:50.283Z,7.72
2022-07-31T00:57:16.909Z,7.95
2022-07-31T00:59:43.920Z,7.35
2022-07-31T01:02:10.925Z,7.70
2022-07-31T01:04:37.751Z,8.18
2022-07-31T01:07:08.560Z,7.80
2022-07-31T01:09:36.011Z,7.50
2022-07-31T01:12:32.812Z,7.30
2022-07-31T01:15:04.821Z,7.57
2022-07-31T01:17:32.896Z,7.53
2022-07-31T01:19:59.883Z,7.43
2022-07-31T01:22:53.687Z,8.55
2022-07-31T01:25:47.843Z,6.93
2022-07-31T01:28:49.600Z,6.78
2022-07-31T01:31:27.224Z,6.65
2022-07-31T01:34:03.995Z,6.78
2022-07-31T01:36:35.155Z,5.93
2022-07-31T01:39:02.841Z,6.20
2022-07-31T01:41:36.222Z,6.28
2022-07-31T01:44:05.378Z,6.03
2022-07-31T01:46:37.464Z,6.55
2022-07-31T01:49:09.979Z,6.25
2022-07-31T01:51:39.167Z,6.47
2022-07-31T01:54:06.866Z,6.32
2022-07-31T01:56:35.115Z,5.72
2022-07-31T01:59:04.600Z,6.47
2022-07-31T02:01:45.013Z,5.95
2022-07-31T02:04:14.144Z,6.20
2022-07-31T02:06:41.653Z,5.82
2022-07-31T02:09:08.505Z,6.63
2022-07-31T02:11:36.045Z,6.57
2022-07-31T02:14:21.460Z,5.63
2022-07-31T02:16:49.503Z,5.68
2022-07-31T02:19:17.321Z,6.20
2022-07-31T02:21:44.071Z,5.88
2022-07-31T02:24:10.755Z,6.30
2022-07-31T02:26:40.324Z,5.80
2022-07-31T02:29:19.788Z,5.47
2022-07-31T02:32:02.982Z,6.25
2022-07-31T02:34:32.434Z,5.20
2022-07-31T02:37:01.261Z,5.10
2022-07-31T02:39:30.810Z,5.50
2022-07-31T02:42:01.665Z,5.35
2022-07-31T02:44:32.465Z,6.10
2022-07-31T02:47:02.574Z,6.13
2022-07-31T02:49:30.724Z,5.70
2022-07-31T02:51:57.934Z,5.45
2022-07-31T02:54:26.163Z,5.32
2022-07-31T02:56:53.675Z,6.18
2022-07-31T02:59:22.139Z,5.63
2022-07-31T03:01:48.944Z,6.47
2022-07-31T03:04:15.621Z,5.93
2022-07-31T03:06:43.425Z,4.95
2022-07-31T03:09:10.155Z,6.03
2022-07-31T03:11:36.906Z,5.47
2022-07-31T03:14:05.599Z,5.38
2022-07-31T03:16:34.135Z,5.75
2022-07-31T03:19:01.923Z,5.55
2022-07-31T03:21:29.712Z,6.05
2022-07-31T03:23:57.532Z,5.40
2022-07-31T03:26:24.546Z,5.68
2022-07-31T03:28:51.453Z,5.57
2022-07-31T03:31:18.047Z,6.13
2022-07-31T03:33:44.683Z,6.05
2022-07-31T03:36:11.395Z,5.85
2022-07-31T03:38:42.248Z,5.47
2022-07-31T03:41:11.030Z,5.85
2022-07-31T03:43:44.375Z,6.07
2022-07-31T03:46:17.043Z,5.85
2022-07-31T03:48:43.771Z,5.40
2022-07-31T03:51:10.714Z,6.13
2022-07-31T03:53:37.991Z,6.05
2022-07-31T03:56:06.716Z,5.72
2022-07-31T03:58:33.522Z,5.35
2022-07-31T04:01:07.299Z,6.28
2022-07-31T04:03:38.191Z,6.70
2022-07-31T04:06:04.843Z,6.72
2022-07-31T04:08:31.463Z,6.47
2022-07-31T04:10:59.165Z,6.68
2022-07-31T04:13:25.728Z,6.75
2022-07-31T04:15:52.347Z,6.65
2022-07-31T04:18:19.004Z,6.75
2022-07-31T04:20:45.632Z,6.18
2022-07-31T04:23:12.278Z,6.35
2022-07-31T04:25:39.252Z,6.40
2022-07-31T04:28:05.921Z,6.43
2022-07-31T04:30:32.560Z,6.72
2022-07-31T04:32:59.492Z,6.38
2022-07-31T04:35:26.096Z,6.00
2022-07-31T04:37:52.765Z,6.00
2022-07-31T04:40:19.425Z,6.82
2022-07-31T04:42:46.075Z,6.05
2022-07-31T04:45:12.759Z,5.68
2022-07-31T04:47:39.320Z,5.57
2022-07-31T04:50:06.468Z,5.57
2022-07-31T04:52:33.066Z,5.60
2022-07-31T04:54:59.658Z,5.55
2022-07-31T04:57:26.295Z,5.28
2022-07-31T04:59:59.339Z,6.10
2022-07-31T05:02:29.134Z,5.25
2022-07-31T05:04:56.771Z,5.80
2022-07-31T05:07:24.471Z,6.13
2022-07-31T05:09:55.480Z,6.05
2022-07-31T05:12:22.098Z,5.55
2022-07-31T05:14:51.874Z,5.13
2022-07-31T05:17:18.426Z,5.70
2022-07-31T05:19:45.079Z,5.75
2022-07-31T05:22:12.431Z,5.22
2022-07-31T05:24:39.176Z,5.43
2022-07-31T05:27:06.413Z,5.05
2022-07-31T05:29:33.665Z,4.90
2022-07-31T05:32:01.255Z,5.38
2022-07-31T05:34:31.213Z,4.95
2022-07-31T05:37:01.173Z,5.57
2022-07-31T05:39:28.702Z,4.30
2022-07-31T05:41:55.326Z,4.93
2022-07-31T05:44:21.991Z,5.00
2022-07-31T05:49:15.829Z,4.07
2022-07-31T05:51:46.742Z,4.60
2022-07-31T05:54:13.759Z,4.22
2022-07-31T05:56:40.380Z,3.67
2022-07-31T05:59:07.040Z,3.83
2022-07-31T06:01:33.735Z,3.72
2022-07-31T06:04:01.076Z,3.70
2022-07-31T06:06:27.721Z,4.30
2022-07-31T06:08:55.228Z,3.35
2022-07-31T06:11:21.936Z,2.95
2022-07-31T06:13:48.535Z,3.08
2022-07-31T06:16:15.717Z,3.38
2022-07-31T06:18:43.424Z,3.58
2022-07-31T06:23:37.324Z,3.50
2022-07-31T06:26:04.367Z,3.35
2022-07-31T06:28:47.671Z,3.05
2022-07-31T06:31:17.825Z,3.25
2022-07-31T06:33:48.081Z,4.07
2022-07-31T06:36:16.469Z,3.13
2022-07-31T06:38:43.035Z,3.30
2022-07-31T06:41:09.764Z,3.58
2022-07-31T06:43:36.431Z,3.55
2022-07-31T06:46:03.055Z,3.95
2022-07-31T06:48:29.692Z,3.60
2022-07-31T06:51:14.699Z,3.95
2022-07-31T06:53:42.934Z,3.63
2022-07-31T06:56:09.572Z,4.15
2022-07-31T06:58:36.180Z,4.70
2022-07-31T07:01:02.886Z,3.95
2022-07-31T07:03:29.493Z,4.10
2022-07-31T07:05:56.097Z,3.33
2022-07-31T07:08:22.706Z,3.78
2022-07-31T07:10:49.462Z,3.53
2022-07-31T07:13:16.122Z,3.47
2022-07-31T07:15:42.801Z,3.60
2022-07-31T07:18:09.428Z,3.45
2022-07-31T07:20:36.017Z,3.80
2022-07-31T07:23:02.659Z,3.15
2022-07-31T07:25:29.342Z,3.53
2022-07-31T07:27:56.815Z,3.15
2022-07-31T07:30:24.222Z,3.58
2022-07-31T07:32:50.916Z,2.65
2022-07-31T07:35:17.552Z,3.10
2022-07-31T07:37:44.192Z,2.90
2022-07-31T07:40:11.686Z,2.90
2022-07-31T07:42:38.544Z,3.47
2022-07-31T07:45:08.143Z,2.20
2022-07-31T07:48:05.698Z,2.63
2022-07-31T07:50:26.693Z,2.83
2022-07-31T07:52:54.268Z,2.70
2022-07-31T07:55:20.856Z,2.83
2022-07-31T07:57:47.468Z,2.40
2022-07-31T08:00:14.741Z,2.83
2022-07-31T08:02:42.689Z,3.17
2022-07-31T08:05:09.583Z,2.38
2022-07-31T08:07:42.123Z,2.80
2022-07-31T08:10:10.715Z,2.80
2022-07-31T08:12:38.052Z,2.50
2022-07-31T08:15:05.626Z,2.40
2022-07-31T08:17:32.273Z,2.33
2022-07-31T08:19:58.868Z,2.35
2022-07-31T08:22:25.602Z,2.00
2022-07-31T08:24:52.190Z,2.28
2022-07-31T08:27:28.470Z,2.40
2022-07-31T08:30:08.087Z,2.30
2022-07-31T08:32:34.821Z,2.25
2022-07-31T08:35:01.757Z,2.30
2022-07-31T08:38:02.303Z,2.30
2022-07-31T08:40:17.969Z,1.90
2022-07-31T08:42:46.163Z,1.92
2022-07-31T08:45:14.175Z,1.90
2022-07-31T08:47:42.311Z,1.70
2022-07-31T08:50:13.048Z,2.08
2022-07-31T08:52:42.820Z,1.35
2022-07-31T08:55:10.182Z,1.98
2022-07-31T08:57:37.105Z,2.30
2022-07-31T09:00:09.895Z,2.00
2022-07-31T09:02:41.697Z,1.73
2022-07-31T09:05:08.734Z,1.92
2022-07-31T09:07:35.448Z,1.75
2022-07-31T09:10:07.251Z,1.80
2022-07-31T09:12:34.790Z,1.90
2022-07-31T09:15:02.229Z,1.95
2022-07-31T09:17:36.402Z,1.45
2022-07-31T09:20:05.639Z,1.70
2022-07-31T09:22:32.375Z,1.85
2022-07-31T09:25:19.294Z,1.90
2022-07-31T09:27:48.833Z,1.90
2022-07-31T09:30:16.235Z,1.92
2022-07-31T09:32:43.362Z,1.90
2022-07-31T09:35:12.226Z,1.90
2022-07-31T09:37:39.415Z,1.80
2022-07-31T09:40:08.088Z,1.70
2022-07-31T09:42:45.846Z,2.00
2022-07-31T09:45:20.299Z,1.60
2022-07-31T09:47:47.478Z,1.48
2022-07-31T09:50:14.579Z,2.03
2022-07-31T09:52:41.286Z,1.77
2022-07-31T09:55:15.556Z,1.80
2022-07-31T09:57:54.317Z,1.65
2022-07-31T10:00:21.484Z,1.77
2022-07-31T10:02:48.764Z,1.48
2022-07-31T10:05:16.439Z,1.98
2022-07-31T10:07:43.587Z,1.48
2022-07-31T10:10:12.285Z,1.55
2022-07-31T10:12:42.288Z,1.70
2022-07-31T10:15:13.741Z,1.70
2022-07-31T10:20:15.018Z,1.67
2022-07-31T10:25:19.741Z,1.98
2022-07-31T10:27:46.664Z,1.63
2022-07-31T10:30:13.581Z,1.80
2022-07-31T10:32:40.298Z,1.70
2022-07-31T10:35:07.833Z,1.70
2022-07-31T10:37:40.374Z,1.73
2022-07-31T10:40:26.584Z,1.40
2022-07-31T10:43:20.301Z,1.52
2022-07-31T10:45:52.304Z,1.73
2022-07-31T10:48:20.109Z,1.70
2022-07-31T10:50:47.323Z,1.63
2022-07-31T10:53:18.283Z,1.90
2022-07-31T10:55:45.325Z,2.05
2022-07-31T10:58:21.880Z,1.52
2022-07-31T11:00:51.873Z,1.70
2022-07-31T11:03:20.493Z,1.67
2022-07-31T11:06:02.360Z,1.38
2022-07-31T11:08:41.329Z,1.55
2022-07-31T11:11:08.115Z,1.40
2022-07-31T11:13:52.081Z,1.50
2022-07-31T11:16:19.700Z,1.50
2022-07-31T11:19:08.434Z,1.42
2022-07-31T11:21:40.634Z,1.80
2022-07-31T11:24:13.779Z,1.45
2022-07-31T11:26:53.910Z,1.52
2022-07-31T11:29:59.396Z,1.58
2022-07-31T11:32:22.895Z,1.45
2022-07-31T11:34:56.894Z,1.80
2022-07-31T11:37:25.646Z,1.27
2022-07-31T11:39:54.678Z,1.27
2022-07-31T11:42:27.527Z,1.40
2022-07-31T11:45:08.353Z,1.60
2022-07-31T11:48:12.603Z,1.40
2022-07-31T11:50:31.203Z,1.40
2022-07-31T11:53:04.587Z,1.35
2022-07-31T11:55:31.367Z,1.50
2022-07-31T11:57:58.013Z,1.40
2022-07-31T12:00:26.784Z,1.55
2022-07-31T12:05:38.000Z,2.35
2022-07-31T12:08:05.556Z,1.50
2022-07-31T12:10:32.291Z,1.50
2022-07-31T12:12:58.932Z,1.50
2022-07-31T12:15:25.594Z,1.45
2022-07-31T12:18:01.811Z,1.40
2022-07-31T12:20:35.751Z,1.58
2022-07-31T12:23:05.151Z,1.33
2022-07-31T12:25:46.397Z,1.58
2022-07-31T12:28:14.446Z,1.50
2022-07-31T12:31:03.007Z,1.40
2022-07-31T12:33:40.719Z,1.20
2022-07-31T12:36:17.917Z,1.23
2022-07-31T12:38:48.273Z,1.48
2022-07-31T12:41:16.092Z,1.77
2022-07-31T12:43:51.121Z,1.85
2022-07-31T12:46:19.493Z,2.22
2022-07-31T12:48:46.561Z,1.92
2022-07-31T12:51:13.403Z,1.80
2022-07-31T12:53:40.084Z,1.50
2022-07-31T12:56:13.763Z,1.40
2022-07-31T12:58:40.378Z,1.45
2022-07-31T13:01:07.064Z,1.45
2022-07-31T13:03:45.473Z,1.10
2022-07-31T13:06:13.503Z,1.30
2022-07-31T13:08:40.305Z,1.77
2022-07-31T13:11:06.904Z,1.50
2022-07-31T13:13:33.577Z,1.92
2022-07-31T13:16:00.280Z,1.88
2022-07-31T13:18:26.856Z,1.58
2022-07-31T13:20:53.553Z,1.20
2022-07-31T13:23:21.511Z,1.45
2022-07-31T13:25:48.181Z,1.67
2022-07-31T13:28:14.791Z,1.50
2022-07-31T13:30:41.669Z,1.55
2022-07-31T13:33:08.343Z,1.58
2022-07-31T13:35:34.996Z,1.30
2022-07-31T13:38:01.615Z,1.38
2022-07-31T13:40:46.648Z,1.80
2022-07-31T13:43:13.656Z,1.90
2022-07-31T13:45:40.338Z,1.40
2022-07-31T13:48:09.519Z,1.40
2022-07-31T13:50:39.976Z,1.27
2022-07-31T13:53:06.900Z,1.30
2022-07-31T13:55:33.579Z,1.70
2022-07-31T13:58:01.315Z,1.30
2022-07-31T14:00:29.651Z,1.10
2022-07-31T14:02:56.979Z,1.10
2022-07-31T14:05:24.242Z,1.17
2022-07-31T14:07:53.357Z,1.27
2022-07-31T14:10:21.811Z,1.30
2022-07-31T14:12:49.006Z,1.23
2022-07-31T14:15:16.666Z,1.02
2022-07-31T14:17:43.287Z,1.10
2022-07-31T14:20:10.435Z,1.30
2022-07-31T14:22:37.090Z,1.30
2022-07-31T14:25:04.217Z,1.15
2022-07-31T14:27:31.003Z,1.30
2022-07-31T14:29:57.681Z,1.60
2022-07-31T14:32:25.271Z,1.15
2022-07-31T14:34:52.380Z,1.30
2022-07-31T14:37:20.594Z,1.25
2022-07-31T14:39:47.829Z,1.35
2022-07-31T14:42:14.524Z,1.10
2022-07-31T14:44:42.315Z,1.27
2022-07-31T14:47:11.213Z,1.15
2022-07-31T14:50:07.644Z,1.52
2022-07-31T14:52:25.225Z,1.30
2022-07-31T14:54:53.918Z,1.15
2022-07-31T14:57:22.317Z,1.20
2022-07-31T14:59:50.060Z,1.20
2022-07-31T15:02:21.969Z,1.20
2022-07-31T15:04:49.721Z,1.23
2022-07-31T15:07:34.779Z,1.52
2022-07-31T15:10:06.917Z,1.40
2022-07-31T15:12:33.690Z,1.47
2022-07-31T15:15:00.558Z,1.48
2022-07-31T15:17:27.244Z,1.70
2022-07-31T15:19:54.002Z,1.38
2022-07-31T15:22:20.916Z,1.23
2022-07-31T15:24:50.050Z,1.35
2022-07-31T15:27:24.766Z,1.50
2022-07-31T15:30:03.693Z,1.40
2022-07-31T15:32:35.416Z,1.50
2022-07-31T15:35:02.625Z,1.40
2022-07-31T15:37:30.230Z,1.20
2022-07-31T15:40:01.904Z,1.70
2022-07-31T15:42:30.242Z,1.02
2022-07-31T15:44:56.846Z,1.17
2022-07-31T15:47:23.587Z,1.50
2022-07-31T15:49:50.408Z,1.67
2022-07-31T15:52:19.053Z,1.30
2022-07-31T15:54:46.696Z,1.38
2022-07-31T15:57:13.678Z,1.30
2022-07-31T15:59:41.820Z,1.50
2022-07-31T16:02:08.553Z,1.55
2022-07-31T16:04:51.565Z,1.23
2022-07-31T16:08:28.600Z,1.00
2022-07-31T16:10:15.428Z,1.25
2022-07-31T16:12:46.576Z,1.30
2022-07-31T16:15:14.333Z,1.42
2022-07-31T16:17:41.818Z,1.67
2022-07-31T16:20:25.565Z,1.45
2022-07-31T16:22:56.466Z,1.13
2022-07-31T16:25:24.506Z,1.20
2022-07-31T16:27:51.694Z,1.10
2022-07-31T16:30:18.377Z,1.42
2022-07-31T16:32:45.105Z,1.38
2022-07-31T16:35:12.627Z,1.70
2022-07-31T16:37:51.298Z,1.65
2022-07-31T16:40:29.684Z,1.75
2022-07-31T16:43:49.365Z,1.52
2022-07-31T16:45:50.515Z,1.33
2022-07-31T16:48:17.429Z,1.60
2022-07-31T16:50:44.099Z,1.42
2022-07-31T16:54:11.076Z,1.15
2022-07-31T16:56:01.016Z,1.17
2022-07-31T16:58:28.991Z,1.63
2022-07-31T17:00:55.854Z,1.50
2022-07-31T17:03:58.912Z,1.33
2022-07-31T17:06:10.516Z,1.95
2022-07-31T17:08:38.318Z,1.58
2022-07-31T17:11:05.250Z,1.42
2022-07-31T17:13:32.002Z,1.70
2022-07-31T17:15:58.704Z,1.45
2022-07-31T17:18:26.028Z,1.20
2022-07-31T17:20:55.722Z,1.30
2022-07-31T17:23:43.276Z,1.37
2022-07-31T17:26:21.165Z,1.30
2022-07-31T17:28:50.667Z,2.28
2022-07-31T17:31:18.920Z,1.63
2022-07-31T17:33:58.331Z,1.73
2022-07-31T17:36:28.500Z,1.35
2022-07-31T17:38:55.694Z,2.00
2022-07-31T17:41:24.833Z,1.48
2022-07-31T17:43:55.567Z,1.67
2022-07-31T17:46:34.603Z,1.40
2022-07-31T17:49:05.822Z,1.30
2022-07-31T17:51:33.192Z,1.27
2022-07-31T17:54:00.120Z,1.20
2022-07-31T17:56:27.155Z,1.58
2022-07-31T17:58:55.646Z,1.42
2022-07-31T18:01:27.062Z,1.40
2022-07-31T18:03:55.764Z,1.20
2022-07-31T18:06:22.506Z,1.70
2022-07-31T18:08:49.337Z,1.23
2022-07-31T18:11:15.981Z,1.50
2022-07-31T18:13:48.578Z,1.73
2022-07-31T18:16:19.208Z,1.52
2022-07-31T18:18:46.295Z,1.70
2022-07-31T18:21:13.450Z,1.83
2022-07-31T18:23:47.307Z,1.80
2022-07-31T18:26:14.600Z,1.65
2022-07-31T18:28:41.452Z,1.50
2022-07-31T18:31:24.153Z,1.50
2022-07-31T18:33:54.844Z,1.80
2022-07-31T18:36:21.575Z,1.55
2022-07-31T18:38:48.366Z,1.85
2022-07-31T18:41:15.071Z,1.40
2022-07-31T18:43:41.673Z,1.50
2022-07-31T18:46:08.299Z,1.58
2022-07-31T18:48:34.951Z,1.30
2022-07-31T18:51:04.718Z,1.85
2022-07-31T18:53:32.823Z,2.20
2022-07-31T18:55:59.479Z,1.80
2022-07-31T18:58:26.146Z,2.28
2022-07-31T19:00:55.080Z,2.33
2022-07-31T19:03:26.407Z,2.00
2022-07-31T19:05:54.563Z,2.23
2022-07-31T19:08:21.508Z,2.30
2022-07-31T19:10:53.518Z,2.30
2022-07-31T19:13:21.247Z,2.10
2022-07-31T19:15:49.091Z,2.08
2022-07-31T19:18:15.811Z,2.42
2022-07-31T19:20:58.935Z,2.53
2022-07-31T19:23:32.323Z,2.22
2022-07-31T19:26:04.093Z,2.28
2022-07-31T19:28:34.049Z,1.70
2022-07-31T19:31:00.702Z,1.95
2022-07-31T19:33:27.329Z,1.95
2022-07-31T19:36:00.963Z,2.97
2022-07-31T19:38:30.147Z,3.22
2022-07-31T19:40:56.850Z,4.05
2022-07-31T19:43:23.494Z,3.85
2022-07-31T19:46:00.489Z,5.03
2022-07-31T19:48:36.957Z,3.90
2022-07-31T19:51:04.734Z,4.93
2022-07-31T19:53:31.674Z,4.35
2022-07-31T19:56:01.341Z,4.35
2022-07-31T19:58:27.939Z,4.75
2022-07-31T20:00:54.572Z,4.63
2022-07-31T20:03:21.324Z,4.18
2022-07-31T20:05:47.996Z,4.35
2022-07-31T20:08:14.595Z,4.40
2022-07-31T20:10:41.240Z,4.57
2022-07-31T20:13:07.823Z,4.18
2022-07-31T20:15:51.682Z,3.95
2022-07-31T20:18:27.582Z,4.47
2022-07-31T20:20:57.750Z,4.07
2022-07-31T20:23:27.777Z,4.50
2022-07-31T20:25:54.632Z,4.28
2022-07-31T20:28:21.518Z,4.50
2022-07-31T20:30:48.376Z,4.40
2022-07-31T20:33:15.257Z,4.72
2022-07-31T20:35:47.630Z,4.63
2022-07-31T20:38:22.826Z,4.93
2022-07-31T20:40:54.408Z,4.47
2022-07-31T20:43:26.580Z,4.60
2022-07-31T20:45:57.963Z,3.50
2022-07-31T20:48:31.243Z,4.85
2022-07-31T20:51:03.999Z,4.53
2022-07-31T20:53:31.945Z,5.88
2022-07-31T20:55:59.355Z,5.50
2022-07-31T20:58:26.452Z,5.97
2022-07-31T21:00:53.797Z,6.20
2022-07-31T21:03:20.925Z,5.85
2022-07-31T21:05:47.929Z,6.60
2022-07-31T21:08:16.259Z,7.03
2022-07-31T21:10:42.949Z,5.35
2022-07-31T21:13:10.129Z,5.80
2022-07-31T21:15:43.902Z,4.85
2022-07-31T21:18:16.328Z,4.88
2022-07-31T21:20:51.007Z,4.97
2022-07-31T21:23:24.289Z,5.25
2022-07-31T21:25:55.358Z,4.97
2022-07-31T21:28:23.291Z,5.38
2022-07-31T21:30:50.339Z,5.00
2022-07-31T21:33:18.366Z,5.10
2022-07-31T21:35:46.644Z,5.25
2022-07-31T21:38:17.148Z,5.30
2022-07-31T21:40:45.008Z,4.90
2022-07-31T21:43:15.977Z,4.43
2022-07-31T21:45:50.464Z,4.53
2022-07-31T21:48:24.869Z,4.03
2022-07-31T21:50:52.558Z,3.75
2022-07-31T21:53:19.474Z,4.68
2022-07-31T21:55:46.136Z,4.07
2022-07-31T21:58:12.752Z,4.00
2022-07-31T22:00:39.498Z,4.40
2022-07-31T22:03:06.322Z,4.57
2022-07-31T22:05:52.742Z,4.72
2022-07-31T22:08:20.246Z,4.65
2022-07-31T22:10:47.182Z,4.50
2022-07-31T22:13:13.883Z,4.25
2022-07-31T22:15:52.702Z,4.10
2022-07-31T22:18:32.358Z,4.35
2022-07-31T22:21:00.473Z,3.70
2022-07-31T22:23:27.916Z,4.30
2022-07-31T22:25:55.414Z,4.20
2022-07-31T22:28:23.473Z,4.25
2022-07-31T22:30:50.902Z,3.45
2022-07-31T22:33:17.955Z,4.10
2022-07-31T22:35:44.796Z,3.90
2022-07-31T22:38:26.679Z,3.80
2022-07-31T22:40:53.352Z,3.75
2022-07-31T22:44:10.224Z,3.63
2022-07-31T22:46:06.825Z,2.78
2022-07-31T22:48:33.745Z,3.13
2022-07-31T22:51:01.599Z,3.08
2022-07-31T22:53:28.237Z,3.10
2022-07-31T22:55:55.147Z,3.15
2022-07-31T22:58:22.351Z,3.35
2022-07-31T23:00:49.970Z,3.50
2022-07-31T23:03:17.028Z,3.85
2022-07-31T23:06:13.083Z,4.65
2022-07-31T23:08:30.302Z,5.38
2022-07-31T23:10:56.899Z,4.93
2022-07-31T23:13:23.515Z,6.22
2022-07-31T23:15:50.145Z,5.80
2022-07-31T23:18:16.737Z,5.15
2022-07-31T23:20:44.125Z,5.05
2022-07-31T23:23:10.740Z,4.20
2022-07-31T23:25:37.397Z,4.53
2022-07-31T23:28:04.037Z,4.28
2022-07-31T23:30:31.138Z,4.40
2022-07-31T23:32:57.724Z,4.10
2022-07-31T23:35:24.301Z,5.10
2022-07-31T23:37:50.907Z,4.53
2022-07-31T23:40:17.527Z,4.60
2022-07-31T23:42:44.145Z,4.07
2022-07-31T23:45:15.410Z,4.55
2022-07-31T23:47:46.227Z,3.72
2022-07-31T23:50:13.721Z,3.77
2022-07-31T23:52:40.413Z,3.75
2022-07-31T23:55:07.397Z,3.53
2022-07-31T23:57:35.925Z,3.58
